Time;durP1;ratioP1;P1;durP2;ratioP2;P2;SDS_P1;SDS_P2;PMS_P1;PMS_P2;Temp;Humidity;BMP_temperature;BMP_pressure;BME280_temperature;BME280_humidity;BME280_pressure;Samples;Min_cycle;Max_cycle;Signal;HPM_P1;HPM_P2
2021/07/10 00:00:35;;;;;;;18.60;13.37;;;16.40;99.90;;;;;;5102916;28;20523;-46
2021/07/10 00:03:02;;;;;;;16.70;13.17;;;16.50;99.90;;;;;;5090406;28;20274;-53
2021/07/10 00:05:29;;;;;;;19.73;12.73;;;16.50;99.90;;;;;;5098554;28;20643;-47
2021/07/10 00:07:55;;;;;;;17.57;12.97;;;16.50;99.90;;;;;;5101826;28;20212;-47
2021/07/10 00:10:22;;;;;;;18.67;13.87;;;16.50;99.90;;;;;;5100615;28;20185;-50
2021/07/10 00:12:49;;;;;;;17.57;13.27;;;16.40;99.90;;;;;;5102830;28;20563;-49
2021/07/10 00:15:18;;;;;;;21.83;14.73;;;16.40;99.90;;;;;;5099030;28;20451;-48
2021/07/10 00:17:49;;;;;;;23.77;15.37;;;16.40;99.90;;;;;;5104189;28;20217;-46
2021/07/10 00:20:16;;;;;;;20.67;14.97;;;16.30;99.90;;;;;;5090186;28;20224;-50
2021/07/10 00:22:44;;;;;;;24.83;14.47;;;16.30;99.90;;;;;;5106662;28;20221;-49
2021/07/10 00:25:13;;;;;;;18.07;14.40;;;16.30;99.90;;;;;;5102129;28;20196;-49
2021/07/10 00:27:41;;;;;;;22.03;15.73;;;16.30;99.90;;;;;;5106591;28;20193;-47
2021/07/10 00:30:09;;;;;;;19.57;14.13;;;16.30;99.90;;;;;;5102236;28;20573;-53
2021/07/10 00:32:36;;;;;;;20.70;14.10;;;16.30;99.90;;;;;;5106645;27;20213;-45
2021/07/10 00:35:05;;;;;;;19.97;15.03;;;16.20;99.90;;;;;;5089961;28;20197;-48
2021/07/10 00:37:32;;;;;;;24.83;14.40;;;16.20;99.90;;;;;;5106066;28;20209;-46
2021/07/10 00:39:59;;;;;;;18.87;13.70;;;16.20;99.90;;;;;;5103865;28;20193;-48
2021/07/10 00:42:25;;;;;;;22.33;14.83;;;16.20;99.90;;;;;;5102990;28;20958;-45
2021/07/10 00:44:52;;;;;;;18.90;13.90;;;16.20;99.90;;;;;;5105217;28;20204;-52
2021/07/10 00:47:19;;;;;;;22.23;14.80;;;16.20;99.90;;;;;;5103048;28;20189;-46
2021/07/10 00:49:45;;;;;;;18.70;14.23;;;16.20;99.90;;;;;;5091415;28;20198;-48
2021/07/10 00:52:13;;;;;;;19.97;14.07;;;16.10;99.90;;;;;;5101871;28;20213;-52
2021/07/10 00:54:41;;;;;;;20.97;15.70;;;16.10;99.90;;;;;;5106163;28;20199;-48
2021/07/10 00:57:08;;;;;;;28.70;15.03;;;16.10;99.90;;;;;;5101935;28;20210;-50
2021/07/10 00:59:37;;;;;;;19.50;14.87;;;16.10;99.90;;;;;;5106144;28;20571;-50
2021/07/10 01:02:04;;;;;;;19.63;13.80;;;16.10;99.90;;;;;;5103025;28;20690;-48
2021/07/10 01:04:31;;;;;;;16.53;14.00;;;16.10;99.90;;;;;;5091591;28;20197;-50
2021/07/10 01:06:58;;;;;;;19.93;13.90;;;16.10;99.90;;;;;;5103556;28;20189;-50
2021/07/10 01:09:27;;;;;;;19.10;13.07;;;16.00;99.90;;;;;;5104209;28;20492;-46
2021/07/10 01:11:54;;;;;;;21.07;13.03;;;16.00;99.90;;;;;;5104630;28;20626;-48
2021/07/10 01:14:20;;;;;;;21.93;14.20;;;16.00;99.90;;;;;;5102998;28;20189;-46
2021/07/10 01:16:47;;;;;;;20.60;13.30;;;15.90;99.90;;;;;;5105769;28;20218;-47
2021/07/10 01:19:21;;;;;;;18.20;14.00;;;15.90;99.90;;;;;;5101243;28;20185;-46
2021/07/10 01:21:49;;;;;;;19.70;13.27;;;15.90;99.90;;;;;;5091232;28;20573;-46
2021/07/10 01:24:16;;;;;;;17.53;13.43;;;15.90;99.90;;;;;;5101120;28;20194;-50
2021/07/10 01:26:42;;;;;;;18.40;13.87;;;15.90;99.90;;;;;;5104594;28;20573;-48
2021/07/10 01:29:09;;;;;;;14.87;12.60;;;15.80;99.90;;;;;;5100667;28;20194;-49
2021/07/10 01:31:37;;;;;;;16.27;12.80;;;15.80;99.90;;;;;;5101473;28;20201;-49
2021/07/10 01:34:03;;;;;;;19.50;13.33;;;15.80;99.90;;;;;;5102144;28;20838;-50
2021/07/10 01:36:30;;;;;;;18.87;13.33;;;15.70;99.90;;;;;;5090501;28;20217;-46
2021/07/10 01:38:58;;;;;;;15.77;13.17;;;15.70;99.90;;;;;;5103052;28;20194;-49
2021/07/10 01:41:25;;;;;;;19.33;13.33;;;15.70;99.90;;;;;;5103519;28;20178;-46
2021/07/10 01:43:52;;;;;;;19.57;13.60;;;15.70;99.90;;;;;;5104108;28;20221;-49
2021/07/10 01:46:18;;;;;;;19.27;12.97;;;15.70;99.90;;;;;;5101645;28;20817;-45
2021/07/10 01:48:45;;;;;;;23.13;14.83;;;15.70;99.90;;;;;;5103435;27;20201;-49
2021/07/10 01:51:12;;;;;;;17.63;13.00;;;15.70;99.90;;;;;;5079865;28;20413;-46
2021/07/10 01:53:38;;;;;;;16.47;13.50;;;15.70;99.90;;;;;;5104809;28;20236;-46
2021/07/10 01:56:07;;;;;;;19.50;13.93;;;15.70;99.90;;;;;;5101342;28;20189;-52
2021/07/10 01:58:33;;;;;;;20.27;12.83;;;15.70;99.90;;;;;;5104626;28;20193;-48
2021/07/10 02:01:00;;;;;;;18.03;13.60;;;15.70;99.90;;;;;;5102102;28;20186;-49
2021/07/10 02:03:26;;;;;;;16.80;12.80;;;15.60;99.90;;;;;;5103191;28;20220;-50
2021/07/10 02:05:54;;;;;;;18.33;14.17;;;15.60;99.90;;;;;;5103659;28;20190;-52
2021/07/10 02:08:20;;;;;;;23.53;13.93;;;15.70;99.90;;;;;;5088002;28;21000;-51
2021/07/10 02:10:47;;;;;;;19.63;14.43;;;15.70;99.90;;;;;;5104188;28;20196;-46
2021/07/10 02:13:15;;;;;;;20.83;14.30;;;15.60;99.90;;;;;;5100457;28;20890;-45
2021/07/10 02:15:43;;;;;;;19.50;14.20;;;15.70;99.90;;;;;;5104018;28;20213;-50
2021/07/10 02:18:09;;;;;;;22.40;15.13;;;15.60;99.90;;;;;;5100279;28;20209;-50
2021/07/10 02:20:37;;;;;;;21.13;14.77;;;15.60;99.90;;;;;;5097656;28;20198;-49
2021/07/10 02:23:04;;;;;;;20.63;13.83;;;15.60;99.90;;;;;;5087356;28;20228;-52
2021/07/10 02:25:31;;;;;;;23.53;14.03;;;15.60;99.90;;;;;;5094181;28;20194;-48
2021/07/10 02:27:59;;;;;;;19.50;14.87;;;15.60;99.90;;;;;;5102053;28;20615;-49
2021/07/10 02:30:29;;;;;;;20.47;14.37;;;15.60;99.90;;;;;;5102141;28;20181;-50
2021/07/10 02:32:57;;;;;;;21.30;14.20;;;15.60;99.90;;;;;;5102767;28;20213;-48
2021/07/10 02:35:24;;;;;;;21.13;13.53;;;15.60;99.90;;;;;;5102634;28;20753;-50
2021/07/10 02:37:51;;;;;;;21.33;14.07;;;15.60;99.90;;;;;;5098811;28;20212;-49
2021/07/10 02:40:19;;;;;;;20.97;14.60;;;15.60;99.90;;;;;;5089274;28;20209;-49
2021/07/10 02:42:46;;;;;;;18.83;14.00;;;15.60;99.90;;;;;;5103742;28;20224;-51
2021/07/10 02:45:15;;;;;;;19.70;14.67;;;15.50;99.90;;;;;;5099361;28;20189;-48
2021/07/10 02:47:43;;;;;;;24.80;15.73;;;15.50;99.90;;;;;;5103885;28;20193;-47
2021/07/10 02:50:14;;;;;;;21.50;14.17;;;15.50;99.90;;;;;;5098935;28;20192;-49
2021/07/10 02:52:41;;;;;;;22.17;15.23;;;15.50;99.90;;;;;;5104046;28;20209;-48
2021/07/10 02:55:09;;;;;;;21.87;14.93;;;15.50;99.90;;;;;;5086284;28;20201;-52
2021/07/10 02:57:35;;;;;;;22.37;15.40;;;15.50;99.90;;;;;;5103698;28;20661;-49
2021/07/10 03:00:04;;;;;;;19.43;14.40;;;15.50;99.90;;;;;;5100567;28;20191;-50
2021/07/10 03:02:31;;;;;;;20.97;14.40;;;15.50;99.90;;;;;;5103212;28;20224;-46
2021/07/10 03:04:59;;;;;;;23.93;15.63;;;15.50;99.90;;;;;;5102253;28;20204;-47
2021/07/10 03:07:25;;;;;;;19.07;14.23;;;15.50;99.90;;;;;;5102319;28;20330;-46
2021/07/10 03:09:52;;;;;;;22.73;14.33;;;15.50;99.90;;;;;;5088871;28;20209;-48
2021/07/10 03:12:19;;;;;;;18.63;13.20;;;15.50;99.90;;;;;;5100522;28;20236;-46
2021/07/10 03:14:45;;;;;;;22.43;14.90;;;15.50;99.90;;;;;;5103679;28;20666;-46
2021/07/10 03:17:12;;;;;;;20.67;14.93;;;15.50;99.90;;;;;;5099715;28;20992;-46
2021/07/10 03:19:39;;;;;;;20.63;14.60;;;15.50;99.90;;;;;;5103184;28;20198;-46
2021/07/10 03:22:07;;;;;;;21.30;14.67;;;15.50;99.90;;;;;;5100436;28;20212;-49
2021/07/10 03:24:34;;;;;;;18.27;14.20;;;15.60;99.90;;;;;;5088034;28;20208;-46
2021/07/10 03:27:00;;;;;;;20.67;14.70;;;15.50;99.90;;;;;;5093749;28;20197;-50
2021/07/10 03:29:27;;;;;;;19.93;13.40;;;15.50;99.90;;;;;;5101425;28;20188;-51
2021/07/10 03:31:53;;;;;;;19.43;13.83;;;15.50;99.90;;;;;;5102720;28;20556;-49
2021/07/10 03:34:20;;;;;;;20.47;14.73;;;15.60;99.90;;;;;;5100875;28;20189;-47
2021/07/10 03:36:47;;;;;;;22.93;13.30;;;15.60;99.90;;;;;;5103485;28;20214;-49
2021/07/10 03:39:15;;;;;;;21.03;14.27;;;15.50;99.90;;;;;;5097109;28;20424;-50
2021/07/10 03:41:41;;;;;;;18.40;13.90;;;15.50;99.90;;;;;;5089247;28;20694;-46
2021/07/10 03:44:08;;;;;;;16.93;13.57;;;15.60;99.90;;;;;;5098776;28;20213;-50
2021/07/10 03:46:35;;;;;;;18.03;12.27;;;15.60;99.90;;;;;;5103259;28;20232;-47
2021/07/10 03:49:02;;;;;;;18.60;12.77;;;15.60;99.90;;;;;;5100703;28;20217;-51
2021/07/10 03:51:28;;;;;;;18.47;12.50;;;15.60;99.90;;;;;;5101268;28;20189;-50
2021/07/10 03:53:55;;;;;;;16.83;12.67;;;15.60;99.90;;;;;;5104857;28;20227;-47
2021/07/10 03:56:23;;;;;;;18.90;13.07;;;15.60;99.90;;;;;;5090891;28;20223;-50
2021/07/10 03:58:49;;;;;;;15.93;12.30;;;15.60;99.90;;;;;;5106144;28;20212;-51
2021/07/10 04:01:16;;;;;;;15.43;11.57;;;15.60;99.90;;;;;;5103622;28;20189;-48
2021/07/10 04:03:43;;;;;;;15.03;11.33;;;15.50;99.90;;;;;;5107161;28;20213;-49
2021/07/10 04:06:10;;;;;;;17.13;11.90;;;15.60;99.90;;;;;;5102562;28;20269;-47
2021/07/10 04:08:36;;;;;;;15.43;11.70;;;15.60;99.90;;;;;;5107302;28;20216;-46
2021/07/10 04:11:04;;;;;;;15.07;11.27;;;15.60;99.90;;;;;;5103711;28;20193;-52
2021/07/10 04:13:32;;;;;;;14.90;11.20;;;15.60;99.90;;;;;;5091888;28;20725;-49
2021/07/10 04:16:00;;;;;;;15.83;11.40;;;15.60;99.90;;;;;;5104505;28;20200;-51
2021/07/10 04:18:27;;;;;;;15.80;11.37;;;15.60;99.90;;;;;;5105247;28;20209;-50
2021/07/10 04:20:53;;;;;;;13.93;10.93;;;15.60;99.90;;;;;;5105372;28;20197;-50
2021/07/10 04:23:23;;;;;;;18.07;10.60;;;15.70;99.90;;;;;;5103996;28;20436;-48
2021/07/10 04:25:49;;;;;;;17.90;10.83;;;15.60;99.90;;;;;;5106674;28;20193;-51
2021/07/10 04:28:16;;;;;;;17.47;11.83;;;15.70;99.90;;;;;;5088670;28;20198;-47
2021/07/10 04:30:44;;;;;;;15.60;10.03;;;15.70;99.90;;;;;;5106139;28;20553;-46
2021/07/10 04:33:11;;;;;;;13.40;9.90;;;15.70;99.90;;;;;;5101907;28;20197;-51
2021/07/10 04:35:38;;;;;;;12.57;10.43;;;15.70;99.90;;;;;;5106594;28;20189;-47
2021/07/10 04:38:05;;;;;;;13.63;10.63;;;15.70;99.90;;;;;;5103139;28;20217;-50
2021/07/10 04:40:31;;;;;;;12.60;9.67;;;15.70;99.90;;;;;;5105813;28;20212;-48
2021/07/10 04:42:58;;;;;;;11.03;9.70;;;15.70;99.90;;;;;;5097299;28;20236;-50
2021/07/10 04:45:25;;;;;;;21.00;10.97;;;15.70;99.90;;;;;;5098198;28;20208;-51
2021/07/10 04:47:53;;;;;;;12.87;10.23;;;15.70;99.90;;;;;;5105499;28;20201;-53
2021/07/10 04:50:21;;;;;;;13.23;10.10;;;15.70;99.90;;;;;;5102663;28;20189;-51
2021/07/10 04:52:48;;;;;;;11.57;10.30;;;15.70;99.90;;;;;;5106077;28;20239;-48
2021/07/10 04:55:17;;;;;;;13.53;10.97;;;15.70;99.90;;;;;;5102326;28;20232;-51
2021/07/10 04:57:44;;;;;;;12.57;10.07;;;15.70;99.90;;;;;;5105736;28;20209;-50
2021/07/10 05:00:13;;;;;;;11.87;10.67;;;15.70;99.90;;;;;;5088308;28;20201;-50
2021/07/10 05:02:39;;;;;;;15.23;10.67;;;15.80;99.90;;;;;;5106067;28;20225;-47
2021/07/10 05:05:09;;;;;;;12.93;10.33;;;15.70;99.90;;;;;;5102236;28;20190;-50
2021/07/10 05:07:36;;;;;;;12.37;9.87;;;15.80;99.90;;;;;;5106028;27;20200;-46
2021/07/10 05:10:03;;;;;;;11.20;10.10;;;15.80;99.90;;;;;;5103011;28;20201;-51
2021/07/10 05:12:30;;;;;;;14.00;10.77;;;15.80;99.90;;;;;;5105204;28;20206;-49
2021/07/10 05:14:57;;;;;;;14.80;10.50;;;15.80;99.90;;;;;;5089958;28;20205;-46
2021/07/10 05:17:24;;;;;;;11.83;9.87;;;15.80;99.90;;;;;;5103472;28;20201;-50
2021/07/10 05:19:51;;;;;;;13.53;9.73;;;15.90;99.90;;;;;;5105117;28;20280;-48
2021/07/10 05:22:19;;;;;;;11.47;9.00;;;15.90;99.90;;;;;;5102135;28;20841;-47
2021/07/10 05:24:45;;;;;;;11.63;9.10;;;15.90;99.90;;;;;;5103153;28;20204;-46
2021/07/10 05:27:12;;;;;;;12.23;10.10;;;16.00;99.90;;;;;;5095492;28;20255;-47
2021/07/10 05:29:39;;;;;;;11.97;8.57;;;16.00;99.90;;;;;;5103295;28;20201;-45
2021/07/10 05:32:06;;;;;;;10.27;8.90;;;16.00;99.90;;;;;;5088082;28;20228;-47
2021/07/10 05:34:33;;;;;;;15.03;8.70;;;16.10;99.90;;;;;;5105142;28;20197;-46
2021/07/10 05:36:59;;;;;;;15.80;9.63;;;16.10;99.90;;;;;;5103057;28;20193;-51
2021/07/10 05:39:27;;;;;;;10.10;8.40;;;16.10;99.90;;;;;;5103573;28;20209;-45
2021/07/10 05:41:54;;;;;;;9.77;8.03;;;16.10;99.90;;;;;;5103533;28;20201;-50
2021/07/10 05:44:21;;;;;;;8.83;7.73;;;16.10;99.90;;;;;;5102380;28;20182;-46
2021/07/10 05:46:48;;;;;;;10.40;8.33;;;16.20;99.90;;;;;;5091213;28;20223;-46
2021/07/10 05:49:14;;;;;;;11.90;8.13;;;16.20;99.90;;;;;;5100669;28;20201;-46
2021/07/10 05:51:41;;;;;;;10.83;8.23;;;16.20;99.90;;;;;;5104433;28;20201;-46
2021/07/10 05:54:08;;;;;;;10.73;7.43;;;16.20;99.90;;;;;;5101009;28;20694;-51
2021/07/10 05:56:36;;;;;;;10.10;8.20;;;16.20;99.90;;;;;;5102733;28;20200;-46
2021/07/10 05:59:03;;;;;;;9.13;7.40;;;16.20;99.90;;;;;;5099576;28;20550;-50
2021/07/10 06:01:29;;;;;;;8.30;7.50;;;16.30;99.90;;;;;;5103589;28;20278;-47
2021/07/10 06:03:56;;;;;;;8.73;7.83;;;16.30;99.90;;;;;;5089331;28;20228;-50
2021/07/10 06:06:23;;;;;;;12.13;7.83;;;16.30;99.90;;;;;;5102249;28;20764;-46
2021/07/10 06:08:49;;;;;;;7.57;6.77;;;16.40;99.90;;;;;;5104310;28;20197;-52
2021/07/10 06:11:17;;;;;;;9.70;7.07;;;16.40;99.90;;;;;;5100702;28;20545;-49
2021/07/10 06:13:45;;;;;;;10.37;6.97;;;16.50;99.90;;;;;;5104238;28;20214;-48
2021/07/10 06:16:11;;;;;;;11.23;7.20;;;16.50;99.90;;;;;;5099833;28;20211;-46
2021/07/10 06:18:38;;;;;;;13.00;7.60;;;16.60;99.90;;;;;;5090545;28;20220;-46
2021/07/10 06:21:05;;;;;;;9.47;7.33;;;16.60;99.90;;;;;;5100896;28;20680;-49
2021/07/10 06:23:31;;;;;;;7.17;6.47;;;16.70;99.90;;;;;;5103899;28;20205;-48
2021/07/10 06:25:58;;;;;;;10.67;6.70;;;16.70;99.90;;;;;;5102175;28;20568;-48
2021/07/10 06:28:25;;;;;;;8.70;6.73;;;16.80;99.90;;;;;;5101697;28;20193;-50
2021/07/10 06:30:53;;;;;;;9.07;6.30;;;16.90;99.90;;;;;;5103482;28;20189;-50
2021/07/10 06:33:19;;;;;;;8.30;6.33;;;17.00;99.90;;;;;;5087642;28;20213;-46
2021/07/10 06:35:46;;;;;;;8.23;6.73;;;17.00;99.90;;;;;;5102786;28;20197;-48
2021/07/10 06:38:12;;;;;;;6.47;5.83;;;17.10;99.90;;;;;;5099770;28;20205;-47
2021/07/10 06:40:39;;;;;;;10.43;6.33;;;17.10;99.90;;;;;;5104046;28;20190;-49
2021/07/10 06:43:06;;;;;;;6.70;6.07;;;17.20;99.90;;;;;;5100086;28;20212;-53
2021/07/10 06:45:32;;;;;;;6.73;5.67;;;17.20;99.90;;;;;;5103633;28;20185;-46
2021/07/10 06:48:01;;;;;;;10.93;6.30;;;17.20;99.90;;;;;;5088245;28;20655;-48
2021/07/10 06:50:29;;;;;;;7.40;5.50;;;17.10;99.90;;;;;;5101632;28;20886;-46
2021/07/10 06:52:56;;;;;;;6.77;6.17;;;17.10;99.90;;;;;;5102303;28;20262;-47
2021/07/10 06:55:23;;;;;;;8.80;5.90;;;17.10;99.90;;;;;;5101748;28;20186;-46
2021/07/10 06:57:49;;;;;;;7.73;5.90;;;17.10;99.90;;;;;;5103569;28;20194;-50
2021/07/10 07:00:19;;;;;;;8.50;5.53;;;17.10;99.90;;;;;;5099388;28;20472;-48
2021/07/10 07:02:46;;;;;;;7.33;6.10;;;17.10;99.90;;;;;;5090247;28;20289;-46
2021/07/10 07:05:14;;;;;;;7.47;5.37;;;17.10;99.90;;;;;;5099358;28;20269;-49
2021/07/10 07:07:41;;;;;;;6.97;5.47;;;17.10;99.90;;;;;;5103889;28;20201;-47
2021/07/10 07:10:11;;;;;;;6.37;5.57;;;17.10;99.90;;;;;;5099545;28;20654;-47
2021/07/10 07:12:38;;;;;;;5.53;5.03;;;17.10;99.90;;;;;;5103942;28;20209;-50
2021/07/10 07:15:07;;;;;;;6.47;5.80;;;17.10;99.90;;;;;;5100389;28;20193;-47
2021/07/10 07:17:34;;;;;;;6.43;5.77;;;17.10;99.90;;;;;;5090242;28;20224;-47
2021/07/10 07:20:00;;;;;;;8.23;7.23;;;17.10;99.90;;;;;;5100727;28;20201;-48
2021/07/10 07:22:28;;;;;;;7.03;6.13;;;17.10;99.90;;;;;;5102479;28;20205;-46
2021/07/10 07:24:55;;;;;;;9.83;5.77;;;17.00;99.90;;;;;;5102257;28;20200;-49
2021/07/10 07:27:21;;;;;;;6.70;5.97;;;17.00;99.90;;;;;;5103367;28;20188;-47
2021/07/10 07:29:48;;;;;;;7.03;5.57;;;17.10;99.90;;;;;;5106563;28;20208;-47
2021/07/10 07:32:15;;;;;;;5.93;5.53;;;17.00;99.90;;;;;;5089659;28;20224;-48
2021/07/10 07:34:41;;;;;;;6.83;5.87;;;17.00;99.90;;;;;;5107314;28;20197;-50
2021/07/10 07:37:08;;;;;;;9.77;6.00;;;17.00;99.90;;;;;;5103713;28;20190;-48
2021/07/10 07:39:36;;;;;;;6.37;5.50;;;17.00;99.90;;;;;;5107231;28;20235;-46
2021/07/10 07:42:03;;;;;;;9.87;6.23;;;17.10;99.90;;;;;;5104635;28;20181;-49
2021/07/10 07:44:29;;;;;;;6.90;6.00;;;17.10;99.90;;;;;;5105267;28;20208;-46
2021/07/10 07:46:56;;;;;;;7.03;5.83;;;17.00;99.90;;;;;;5105567;28;20192;-49
2021/07/10 07:49:22;;;;;;;6.23;5.63;;;17.10;99.90;;;;;;5091117;28;20197;-47
2021/07/10 07:51:49;;;;;;;6.33;5.67;;;17.10;99.90;;;;;;5106324;28;20189;-52
2021/07/10 07:54:16;;;;;;;12.00;5.77;;;17.20;99.90;;;;;;5103584;28;20857;-46
2021/07/10 07:56:44;;;;;;;6.70;6.10;;;17.20;99.90;;;;;;5107159;28;20194;-48
2021/07/10 07:59:10;;;;;;;8.27;6.17;;;17.20;99.90;;;;;;5092864;28;20983;-50
2021/07/10 08:01:37;;;;;;;7.13;5.40;;;17.20;99.90;;;;;;5106719;28;20204;-47
2021/07/10 08:04:04;;;;;;;7.47;5.83;;;17.30;99.90;;;;;;5093122;28;20220;-52
2021/07/10 08:06:31;;;;;;;9.70;5.97;;;17.30;99.90;;;;;;5104039;28;20208;-46
2021/07/10 08:08:57;;;;;;;7.23;5.97;;;17.30;99.90;;;;;;5104885;28;20185;-50
2021/07/10 08:11:24;;;;;;;6.37;5.23;;;17.40;99.90;;;;;;5105245;28;20186;-46
2021/07/10 08:13:52;;;;;;;9.27;6.07;;;17.40;99.90;;;;;;5106324;28;20217;-54
2021/07/10 08:16:18;;;;;;;5.70;5.27;;;17.40;99.90;;;;;;5103403;28;20174;-49
2021/07/10 08:18:45;;;;;;;6.97;5.43;;;17.40;99.90;;;;;;5106271;28;20206;-46
2021/07/10 08:21:13;;;;;;;5.30;4.80;;;17.40;99.90;;;;;;5088609;28;20921;-47
2021/07/10 08:23:40;;;;;;;6.17;5.53;;;17.40;99.90;;;;;;5106240;28;20213;-48
2021/07/10 08:26:06;;;;;;;5.00;4.60;;;17.40;99.90;;;;;;5103057;28;20263;-51
2021/07/10 08:28:33;;;;;;;5.23;4.23;;;17.40;99.90;;;;;;5097998;28;20205;-49
2021/07/10 08:31:01;;;;;;;5.97;4.93;;;17.50;99.90;;;;;;5104005;28;20590;-50
2021/07/10 08:33:28;;;;;;;6.93;4.87;;;17.50;99.90;;;;;;5105323;28;20197;-48
2021/07/10 08:35:54;;;;;;;4.90;4.23;;;17.60;99.90;;;;;;5092029;28;20700;-47
2021/07/10 08:38:22;;;;;;;5.33;4.43;;;17.70;99.90;;;;;;5102843;28;20217;-49
2021/07/10 08:40:50;;;;;;;5.57;4.70;;;17.80;99.90;;;;;;5106106;28;20527;-47
2021/07/10 08:43:17;;;;;;;16.83;5.27;;;18.00;99.90;;;;;;5102613;28;21006;-47
2021/07/10 08:45:46;;;;;;;5.80;4.43;;;18.00;99.90;;;;;;5106081;28;20189;-48
2021/07/10 08:48:15;;;;;;;5.20;4.73;;;18.10;99.90;;;;;;5100659;28;20788;-50
2021/07/10 08:50:42;;;;;;;4.87;4.00;;;18.20;99.90;;;;;;5105312;28;20197;-49
2021/07/10 08:53:09;;;;;;;11.13;4.83;;;18.40;99.90;;;;;;5087449;28;20213;-51
2021/07/10 08:55:37;;;;;;;4.80;4.37;;;18.50;99.90;;;;;;5106099;28;20594;-49
2021/07/10 08:58:04;;;;;;;4.23;3.83;;;18.60;99.90;;;;;;5098405;28;20291;-49
2021/07/10 09:00:34;;;;;;;4.80;4.30;;;18.60;99.90;;;;;;5101494;28;20209;-46
2021/07/10 09:03:01;;;;;;;4.97;4.57;;;18.60;99.90;;;;;;5103325;28;20227;-51
2021/07/10 09:05:30;;;;;;;4.80;4.37;;;18.60;99.90;;;;;;5104851;28;20858;-50
2021/07/10 09:08:19;;;;;;;5.97;4.73;;;18.60;99.90;;;;;;5090430;28;20202;-48
2021/07/10 09:10:51;;;;;;;4.80;4.30;;;18.60;99.90;;;;;;5105546;28;20196;-50
2021/07/10 09:13:19;;;;;;;4.43;4.03;;;18.60;99.90;;;;;;5103165;28;20213;-51
2021/07/10 09:15:46;;;;;;;4.07;3.60;;;18.80;99.90;;;;;;5105763;28;20193;-46
2021/07/10 09:18:14;;;;;;;5.93;3.70;;;18.80;99.90;;;;;;5101522;28;20178;-46
2021/07/10 09:20:44;;;;;;;5.60;4.00;;;18.80;99.90;;;;;;5105600;28;20194;-47
2021/07/10 09:23:25;;;;;;;4.77;3.40;;;18.90;99.90;;;;;;5087612;28;20213;-50
2021/07/10 09:25:52;;;;;;;3.93;3.53;;;18.90;99.90;;;;;;5100390;28;20198;-50
2021/07/10 09:28:27;;;;;;;5.27;3.30;;;18.90;99.90;;;;;;5097164;28;20182;-48
2021/07/10 09:30:54;;;;;;;3.90;3.60;;;19.00;99.90;;;;;;5083904;28;20197;-50
2021/07/10 09:33:23;;;;;;;4.40;3.40;;;19.10;99.90;;;;;;5082567;28;20259;-50
2021/07/10 09:35:52;;;;;;;6.90;4.10;;;19.20;99.90;;;;;;5084483;28;20194;-53
2021/07/10 09:38:21;;;;;;;3.90;3.63;;;19.30;99.90;;;;;;5086165;28;20204;-46
2021/07/10 09:41:03;;;;;;;4.87;4.10;;;19.50;99.90;;;;;;5103779;28;20193;-46
2021/07/10 09:43:32;;;;;;;4.50;4.10;;;19.50;99.90;;;;;;5104384;28;20205;-46
2021/07/10 09:46:01;;;;;;;4.90;4.47;;;19.50;99.90;;;;;;5103037;28;20194;-49
2021/07/10 09:48:28;;;;;;;5.87;4.13;;;19.40;99.90;;;;;;5103814;28;20698;-46
2021/07/10 09:51:22;;;;;;;4.87;4.47;;;19.30;99.90;;;;;;5101696;28;20563;-47
2021/07/10 09:54:05;;;;;;;4.83;4.27;;;19.40;99.90;;;;;;5090209;28;20225;-50
2021/07/10 09:56:34;;;;;;;5.13;4.47;;;19.50;99.90;;;;;;5104665;28;20246;-47
2021/07/10 09:59:16;;;;;;;6.10;4.77;;;19.60;99.90;;;;;;5102063;28;20205;-50
2021/07/10 10:01:43;;;;;;;4.87;4.47;;;19.60;99.90;;;;;;5105103;28;20202;-46
2021/07/10 10:04:21;;;;;;;5.07;4.33;;;19.60;99.90;;;;;;5100534;28;20948;-46
2021/07/10 10:06:49;;;;;;;5.17;4.67;;;19.50;99.90;;;;;;5104403;28;20200;-51
2021/07/10 10:09:18;;;;;;;8.07;4.80;;;19.50;99.90;;;;;;5087098;28;20208;-48
2021/07/10 10:11:53;;;;;;;5.63;4.57;;;19.60;99.90;;;;;;5104444;28;20280;-49
2021/07/10 10:14:21;;;;;;;5.03;4.00;;;19.60;99.90;;;;;;5101942;28;20176;-46
2021/07/10 10:16:49;;;;;;;4.43;3.93;;;19.60;99.90;;;;;;5104688;28;20847;-48
2021/07/10 10:19:17;;;;;;;4.60;4.17;;;19.70;99.90;;;;;;5100189;28;20263;-51
2021/07/10 10:21:45;;;;;;;4.57;4.07;;;19.70;99.90;;;;;;5104477;28;20193;-46
2021/07/10 10:24:13;;;;;;;5.77;3.77;;;19.70;99.90;;;;;;5085894;28;20360;-49
2021/07/10 10:26:41;;;;;;;4.77;4.03;;;19.70;99.90;;;;;;5103904;28;20201;-46
2021/07/10 10:29:09;;;;;;;4.87;4.37;;;19.80;99.90;;;;;;5100188;28;20216;-52
2021/07/10 10:31:38;;;;;;;8.47;3.93;;;19.80;99.90;;;;;;5104098;28;20200;-48
2021/07/10 10:34:06;;;;;;;6.13;3.33;;;19.80;99.90;;;;;;5100842;28;20212;-50
2021/07/10 10:36:34;;;;;;;4.43;4.03;;;19.90;99.90;;;;;;5103867;28;20557;-47
2021/07/10 10:39:02;;;;;;;5.03;4.23;;;19.90;99.90;;;;;;5082532;28;20213;-47
2021/07/10 10:41:33;;;;;;;4.13;3.83;;;20.10;99.90;;;;;;5102850;28;20201;-47
2021/07/10 10:44:00;;;;;;;4.23;3.83;;;20.10;99.90;;;;;;5101930;28;20205;-51
2021/07/10 10:46:27;;;;;;;4.30;3.90;;;20.00;99.90;;;;;;5102607;28;20212;-51
2021/07/10 10:48:54;;;;;;;4.80;4.30;;;20.00;99.90;;;;;;5102896;28;20582;-50
2021/07/10 10:51:25;;;;;;;4.93;4.03;;;20.00;99.90;;;;;;5100314;28;20196;-50
2021/07/10 10:53:52;;;;;;;5.10;4.30;;;20.20;99.90;;;;;;5099533;28;20702;-50
2021/07/10 10:56:36;;;;;;;4.57;4.17;;;20.40;99.90;;;;;;5090820;28;20205;-46
2021/07/10 10:59:39;;;;;;;4.20;3.90;;;20.60;99.90;;;;;;5080622;28;20279;-52
2021/07/10 11:02:54;;;;;;;8.17;3.47;;;20.60;99.90;;;;;;5079847;28;20531;-51
2021/07/10 11:05:52;;;;;;;4.77;3.30;;;20.40;99.90;;;;;;5080998;28;20209;-48
2021/07/10 11:08:36;;;;;;;4.07;3.50;;;20.30;99.90;;;;;;5052229;28;20211;-48
2021/07/10 11:11:27;;;;;;;4.00;3.60;;;20.30;99.90;;;;;;5079755;28;20203;-50
2021/07/10 11:14:12;;;;;;;4.00;3.70;;;20.50;99.90;;;;;;5094368;28;20341;-50
2021/07/10 11:17:02;;;;;;;6.43;3.70;;;20.80;99.90;;;;;;5104028;28;20190;-48
2021/07/10 11:19:46;;;;;;;3.72;2.95;;;21.00;99.90;;;;;;5102209;28;20205;-46
2021/07/10 11:22:33;;;;;;;5.00;3.13;;;21.10;99.90;;;;;;5099365;28;20201;-46
2021/07/10 11:24:59;;;;;;;2.88;2.70;;;21.10;99.90;;;;;;5101616;28;20204;-50
2021/07/10 11:27:26;;;;;;;3.30;3.10;;;21.10;99.90;;;;;;5087548;28;20204;-48
2021/07/10 11:30:19;;;;;;;3.35;3.00;;;21.10;99.90;;;;;;5102457;28;20193;-50
2021/07/10 11:32:46;;;;;;;3.78;3.47;;;21.20;99.90;;;;;;5103600;28;20258;-48
2021/07/10 11:35:34;;;;;;;4.03;3.72;;;21.00;99.90;;;;;;5099562;28;20185;-46
2021/07/10 11:38:01;;;;;;;3.78;3.25;;;20.90;99.90;;;;;;5101296;28;20189;-52
2021/07/10 11:40:37;;;;;;;3.35;3.05;;;20.90;99.90;;;;;;5101630;28;20220;-46
2021/07/10 11:43:09;;;;;;;3.38;2.80;;;20.90;99.90;;;;;;5086700;28;20224;-50
2021/07/10 11:45:47;;;;;;;3.00;2.80;;;21.10;99.90;;;;;;5103523;28;20208;-46
2021/07/10 11:48:25;;;;;;;3.08;2.88;;;21.20;99.90;;;;;;5099043;28;20180;-46
2021/07/10 11:51:19;;;;;;;4.85;2.92;;;21.20;99.90;;;;;;5101627;28;20185;-50
2021/07/10 11:53:45;;;;;;;2.80;2.60;;;21.10;99.90;;;;;;5102729;28;20214;-47
2021/07/10 11:56:12;;;;;;;2.65;2.28;;;21.00;99.90;;;;;;5099290;28;20209;-46
2021/07/10 11:58:40;;;;;;;2.78;2.55;;;20.90;99.90;;;;;;5086772;28;20198;-46
2021/07/10 12:01:08;;;;;;;3.60;3.33;;;20.80;99.90;;;;;;5099004;28;20244;-47
2021/07/10 12:03:35;;;;;;;3.20;3.00;;;20.90;99.90;;;;;;5103418;28;20235;-46
2021/07/10 12:06:02;;;;;;;2.75;2.55;;;20.90;99.90;;;;;;5100581;28;20193;-47
2021/07/10 12:08:30;;;;;;;3.47;3.28;;;21.00;99.90;;;;;;5102189;28;20202;-48
2021/07/10 12:10:58;;;;;;;3.15;2.90;;;21.20;99.90;;;;;;5101048;28;20263;-49
2021/07/10 12:13:31;;;;;;;2.63;2.53;;;21.40;99.90;;;;;;5101436;28;20246;-46
2021/07/10 12:16:00;;;;;;;4.50;3.45;;;21.60;99.90;;;;;;5090879;28;20212;-48
2021/07/10 12:18:31;;;;;;;3.00;2.80;;;21.60;99.90;;;;;;5105636;28;20935;-46
2021/07/10 12:20:59;;;;;;;3.05;2.85;;;21.80;99.90;;;;;;5104552;28;20213;-47
2021/07/10 12:23:28;;;;;;;3.30;3.00;;;21.90;99.90;;;;;;5105124;28;20208;-47
2021/07/10 12:25:59;;;;;;;3.45;3.15;;;22.00;99.90;;;;;;5101137;28;20194;-48
2021/07/10 12:28:34;;;;;;;3.00;2.80;;;22.30;99.90;;;;;;5100575;28;20196;-48
2021/07/10 12:31:02;;;;;;;3.42;2.92;;;22.20;99.90;;;;;;5087968;28;20197;-50
2021/07/10 12:33:36;;;;;;;3.20;2.90;;;22.20;99.90;;;;;;5105417;28;20201;-47
2021/07/10 12:36:15;;;;;;;3.30;3.03;;;22.30;99.90;;;;;;5103561;28;20189;-48
2021/07/10 12:39:12;;;;;;;3.70;3.40;;;22.20;99.90;;;;;;5106490;28;20674;-48
2021/07/10 12:41:45;;;;;;;3.97;3.67;;;22.30;99.90;;;;;;5105218;28;20321;-47
2021/07/10 12:44:15;;;;;;;3.50;3.30;;;22.30;99.90;;;;;;5101987;28;20205;-46
2021/07/10 12:46:56;;;;;;;3.28;2.97;;;22.30;99.90;;;;;;5092348;28;20670;-46